sensor_id;sensor_type;location;lat;lon;timestamp;pressure;altitude;pressure_sealevel;temperature;humidity
65553;BME280;52465;51.560;14.368;2022-09-09T00:07:03;99853.78;;;22.67;63.32
65553;BME280;52465;51.560;14.368;2022-09-09T00:09:32;99858.88;;;22.69;62.98
65553;BME280;52465;51.560;14.368;2022-09-09T00:12:12;99863.41;;;22.68;63.11
65553;BME280;52465;51.560;14.368;2022-09-09T00:14:54;99857.25;;;22.68;63.39
65553;BME280;52465;51.560;14.368;2022-09-09T00:17:31;99854.81;;;22.66;62.94
65553;BME280;52465;51.560;14.368;2022-09-09T00:20:12;99851.34;;;22.66;62.97
65553;BME280;52465;51.560;14.368;2022-09-09T00:22:45;99854.81;;;22.66;62.98
65553;BME280;52465;51.560;14.368;2022-09-09T00:25:23;99852.41;;;22.65;63.06
65553;BME280;52465;51.560;14.368;2022-09-09T00:27:54;99847.31;;;22.63;63.27
65553;BME280;52465;51.560;14.368;2022-09-09T00:30:21;99857.75;;;22.65;62.92
65553;BME280;52465;51.560;14.368;2022-09-09T00:32:54;99850.25;;;22.62;62.95
65553;BME280;52465;51.560;14.368;2022-09-09T00:35:34;99848.59;;;22.61;63.09
65553;BME280;52465;51.560;14.368;2022-09-09T00:38:09;99857.41;;;22.61;63.03
65553;BME280;52465;51.560;14.368;2022-09-09T00:40:45;99848.59;;;22.61;63.16
65553;BME280;52465;51.560;14.368;2022-09-09T00:43:28;99855.00;;;22.60;62.98
65553;BME280;52465;51.560;14.368;2022-09-09T00:49:04;99852.59;;;22.58;63.00
65553;BME280;52465;51.560;14.368;2022-09-09T00:51:54;99854.44;;;22.58;62.97
65553;BME280;52465;51.560;14.368;2022-09-09T00:57:18;99859.19;;;22.56;63.09
65553;BME280;52465;51.560;14.368;2022-09-09T00:59:52;99860.25;;;22.55;63.00
65553;BME280;52465;51.560;14.368;2022-09-09T01:02:30;99860.25;;;22.55;62.95
65553;BME280;52465;51.560;14.368;2022-09-09T01:05:05;99863.72;;;22.55;63.15
65553;BME280;52465;51.560;14.368;2022-09-09T01:07:32;99860.50;;;22.53;63.15
65553;BME280;52465;51.560;14.368;2022-09-09T01:09:59;99867.72;;;22.53;63.09
65553;BME280;52465;51.560;14.368;2022-09-09T01:12:33;99867.97;;;22.51;63.20
65553;BME280;52465;51.560;14.368;2022-09-09T01:20:24;99863.66;;;22.50;63.25
65553;BME280;52465;51.560;14.368;2022-09-09T01:26:02;99874.59;;;22.49;63.00
65553;BME280;52465;51.560;14.368;2022-09-09T01:28:30;99879.09;;;22.48;63.01
65553;BME280;52465;51.560;14.368;2022-09-09T01:30:58;99868.69;;;22.47;63.29
65553;BME280;52465;51.560;14.368;2022-09-09T01:33:24;99874.84;;;22.47;63.34
65553;BME280;52465;51.560;14.368;2022-09-09T01:36:08;99863.34;;;22.47;63.29
65553;BME280;52465;51.560;14.368;2022-09-09T01:38:35;99864.97;;;22.48;62.86
65553;BME280;52465;51.560;14.368;2022-09-09T01:41:01;99853.75;;;22.46;63.26
65553;BME280;52465;51.560;14.368;2022-09-09T01:43:27;99867.56;;;22.42;63.24
65553;BME280;52465;51.560;14.368;2022-09-09T01:45:55;99867.31;;;22.44;62.94
65553;BME280;52465;51.560;14.368;2022-09-09T01:48:22;99866.50;;;22.43;63.15
65553;BME280;52465;51.560;14.368;2022-09-09T01:50:48;99863.03;;;22.43;63.41
65553;BME280;52465;51.560;14.368;2022-09-09T01:53:15;99859.00;;;22.40;62.94
65553;BME280;52465;51.560;14.368;2022-09-09T01:55:48;99864.34;;;22.40;63.27
65553;BME280;52465;51.560;14.368;2022-09-09T01:58:34;99865.41;;;22.39;63.01
65553;BME280;52465;51.560;14.368;2022-09-09T02:03:47;99862.72;;;22.39;62.90
65553;BME280;52465;51.560;14.368;2022-09-09T02:06:36;99868.53;;;22.36;62.94
65553;BME280;52465;51.560;14.368;2022-09-09T02:09:05;99873.88;;;22.36;63.37
65553;BME280;52465;51.560;14.368;2022-09-09T02:11:32;99866.91;;;22.35;63.48
65553;BME280;52465;51.560;14.368;2022-09-09T02:14:10;99868.44;;;22.31;63.27
65553;BME280;52465;51.560;14.368;2022-09-09T02:16:43;99869.00;;;22.33;63.03
65553;BME280;52465;51.560;14.368;2022-09-09T02:19:19;99870.06;;;22.32;63.07
65553;BME280;52465;51.560;14.368;2022-09-09T02:21:52;99873.53;;;22.33;63.49
65553;BME280;52465;51.560;14.368;2022-09-09T02:24:18;99872.97;;;22.31;63.57
65553;BME280;52465;51.560;14.368;2022-09-09T02:26:46;99867.66;;;22.31;63.40
65553;BME280;52465;51.560;14.368;2022-09-09T02:29:18;99872.19;;;22.30;63.18
65553;BME280;52465;51.560;14.368;2022-09-09T02:31:45;99868.69;;;22.30;63.49
65553;BME280;52465;51.560;14.368;2022-09-09T02:34:13;99871.38;;;22.30;63.05
65553;BME280;52465;51.560;14.368;2022-09-09T02:36:42;99871.13;;;22.31;63.19
65553;BME280;52465;51.560;14.368;2022-09-09T02:39:09;99871.13;;;22.31;63.30
65553;BME280;52465;51.560;14.368;2022-09-09T02:41:39;99872.97;;;22.31;63.09
65553;BME280;52465;51.560;14.368;2022-09-09T02:44:08;99870.78;;;22.28;63.25
65553;BME280;52465;51.560;14.368;2022-09-09T02:49:46;99872.66;;;22.27;63.20
65553;BME280;52465;51.560;14.368;2022-09-09T02:52:15;99881.69;;;22.26;62.92
65553;BME280;52465;51.560;14.368;2022-09-09T02:54:44;99872.09;;;22.25;63.39
65553;BME280;52465;51.560;14.368;2022-09-09T02:57:14;99878.47;;;22.24;63.21
65553;BME280;52465;51.560;14.368;2022-09-09T02:59:43;99876.06;;;22.23;63.02
65553;BME280;52465;51.560;14.368;2022-09-09T03:02:09;99871.75;;;22.22;63.27
65553;BME280;52465;51.560;14.368;2022-09-09T03:04:35;99872.56;;;22.22;63.13
65553;BME280;52465;51.560;14.368;2022-09-09T03:07:00;99880.81;;;22.21;63.12
65553;BME280;52465;51.560;14.368;2022-09-09T03:09:25;99877.34;;;22.20;63.36
65553;BME280;52465;51.560;14.368;2022-09-09T03:11:51;99890.66;;;22.20;63.02
65553;BME280;52465;51.560;14.368;2022-09-09T03:14:17;99895.44;;;22.18;62.95
65553;BME280;52465;51.560;14.368;2022-09-09T03:16:46;99889.31;;;22.17;63.39
65553;BME280;52465;51.560;14.368;2022-09-09T03:19:11;99894.41;;;22.19;63.17
65553;BME280;52465;51.560;14.368;2022-09-09T03:21:37;99881.53;;;22.16;63.46
65553;BME280;52465;51.560;14.368;2022-09-09T03:24:02;99885.84;;;22.17;63.32
65553;BME280;52465;51.560;14.368;2022-09-09T03:26:29;99879.66;;;22.16;63.25
65553;BME280;52465;51.560;14.368;2022-09-09T03:28:55;99880.72;;;22.15;63.14
65553;BME280;52465;51.560;14.368;2022-09-09T03:31:21;99883.38;;;22.15;63.34
65553;BME280;52465;51.560;14.368;2022-09-09T03:33:46;99883.09;;;22.12;62.76
65553;BME280;52465;51.560;14.368;2022-09-09T03:36:11;99882.88;;;22.02;62.48
65553;BME280;52465;51.560;14.368;2022-09-09T03:38:36;99884.06;;;21.94;62.12
65553;BME280;52465;51.560;14.368;2022-09-09T03:41:02;99887.47;;;21.89;62.18
65553;BME280;52465;51.560;14.368;2022-09-09T03:43:28;99886.88;;;21.87;62.08
65553;BME280;52465;51.560;14.368;2022-09-09T03:45:54;99884.47;;;21.86;61.93
65553;BME280;52465;51.560;14.368;2022-09-09T03:48:22;99874.06;;;21.84;61.70
65553;BME280;52465;51.560;14.368;2022-09-09T03:50:50;99877.78;;;21.83;61.49
65553;BME280;52465;51.560;14.368;2022-09-09T03:53:16;99882.50;;;21.81;61.54
65553;BME280;52465;51.560;14.368;2022-09-09T03:55:51;99884.63;;;21.79;61.27
65553;BME280;52465;51.560;14.368;2022-09-09T03:58:19;99877.69;;;21.78;61.60
65553;BME280;52465;51.560;14.368;2022-09-09T04:00:55;99885.66;;;21.78;61.48
65553;BME280;52465;51.560;14.368;2022-09-09T04:03:21;99887.28;;;21.79;61.39
65553;BME280;52465;51.560;14.368;2022-09-09T04:05:51;99892.63;;;21.79;61.34
65553;BME280;52465;51.560;14.368;2022-09-09T04:08:16;99890.41;;;21.76;61.55
65553;BME280;52465;51.560;14.368;2022-09-09T04:10:41;99887.53;;;21.78;61.56
65553;BME280;52465;51.560;14.368;2022-09-09T04:13:07;99889.34;;;21.77;61.64
65553;BME280;52465;51.560;14.368;2022-09-09T04:15:32;99893.06;;;21.76;61.65
65553;BME280;52465;51.560;14.368;2022-09-09T04:17:58;99897.59;;;21.76;61.42
65553;BME280;52465;51.560;14.368;2022-09-09T04:20:23;99891.72;;;21.74;61.77
65553;BME280;52465;51.560;14.368;2022-09-09T04:22:49;99896.00;;;21.75;61.54
65553;BME280;52465;51.560;14.368;2022-09-09T04:25:14;99903.72;;;21.76;61.43
65553;BME280;52465;51.560;14.368;2022-09-09T04:27:40;99898.41;;;21.76;61.58
65553;BME280;52465;51.560;14.368;2022-09-09T04:30:06;99899.47;;;21.75;61.59
65553;BME280;52465;51.560;14.368;2022-09-09T04:32:33;99903.72;;;21.76;61.82
65553;BME280;52465;51.560;14.368;2022-09-09T04:34:58;99903.53;;;21.78;61.57
65553;BME280;52465;51.560;14.368;2022-09-09T04:37:23;99914.72;;;21.80;61.47
65553;BME280;52465;51.560;14.368;2022-09-09T04:39:50;99908.84;;;21.78;61.68
65553;BME280;52465;51.560;14.368;2022-09-09T04:42:15;99908.84;;;21.78;61.20
65553;BME280;52465;51.560;14.368;2022-09-09T04:44:41;99913.34;;;21.77;61.54
65553;BME280;52465;51.560;14.368;2022-09-09T04:47:06;99910.91;;;21.76;61.92
65553;BME280;52465;51.560;14.368;2022-09-09T04:49:32;99907.44;;;21.75;61.81
65553;BME280;52465;51.560;14.368;2022-09-09T04:51:57;99918.09;;;21.75;61.51
65553;BME280;52465;51.560;14.368;2022-09-09T04:54:22;99907.44;;;21.75;61.48
65553;BME280;52465;51.560;14.368;2022-09-09T04:56:50;99910.38;;;21.74;61.63
65553;BME280;52465;51.560;14.368;2022-09-09T04:59:15;99910.13;;;21.75;61.92
65553;BME280;52465;51.560;14.368;2022-09-09T05:01:41;99907.94;;;21.72;61.66
65553;BME280;52465;51.560;14.368;2022-09-09T05:04:06;99909.78;;;21.72;61.73
65553;BME280;52465;51.560;14.368;2022-09-09T05:06:31;99907.94;;;21.72;61.79
65553;BME280;52465;51.560;14.368;2022-09-09T05:08:57;99900.88;;;21.66;61.84
65553;BME280;52465;51.560;14.368;2022-09-09T05:11:26;99918.59;;;21.72;61.60
65553;BME280;52465;51.560;14.368;2022-09-09T05:13:53;99911.63;;;21.71;61.77
65553;BME280;52465;51.560;14.368;2022-09-09T05:16:20;99897.41;;;21.65;61.66
65553;BME280;52465;51.560;14.368;2022-09-09T05:18:46;99904.69;;;21.70;61.78
65553;BME280;52465;51.560;14.368;2022-09-09T05:21:13;99899.59;;;21.69;61.52
65553;BME280;52465;51.560;14.368;2022-09-09T05:23:38;99905.19;;;21.67;61.72
65553;BME280;52465;51.560;14.368;2022-09-09T05:26:05;99898.81;;;21.68;61.73
65553;BME280;52465;51.560;14.368;2022-09-09T05:28:33;99903.31;;;21.68;61.67
65553;BME280;52465;51.560;14.368;2022-09-09T05:31:05;99912.13;;;21.68;61.86
65553;BME280;52465;51.560;14.368;2022-09-09T05:33:35;99917.44;;;21.68;61.91
65553;BME280;52465;51.560;14.368;2022-09-09T05:36:02;99911.53;;;21.66;61.64
65553;BME280;52465;51.560;14.368;2022-09-09T05:38:29;99919.31;;;21.68;61.70
65553;BME280;52465;51.560;14.368;2022-09-09T05:40:55;99922.19;;;21.66;61.75
65553;BME280;52465;51.560;14.368;2022-09-09T05:43:22;99925.44;;;21.68;61.51
65553;BME280;52465;51.560;14.368;2022-09-09T05:45:48;99922.78;;;21.68;61.71
65553;BME280;52465;51.560;14.368;2022-09-09T05:48:16;99918.50;;;21.67;61.65
65553;BME280;52465;51.560;14.368;2022-09-09T05:50:42;99920.38;;;21.67;61.99
65553;BME280;52465;51.560;14.368;2022-09-09T05:53:09;99928.09;;;21.68;61.64
65553;BME280;52465;51.560;14.368;2022-09-09T05:55:35;99919.53;;;21.66;61.94
65553;BME280;52465;51.560;14.368;2022-09-09T05:58:00;99928.91;;;21.69;61.76
65553;BME280;52465;51.560;14.368;2022-09-09T06:00:26;99922.19;;;21.66;61.88
65553;BME280;52465;51.560;14.368;2022-09-09T06:02:52;99924.38;;;21.69;61.67
65553;BME280;52465;51.560;14.368;2022-09-09T06:05:17;99927.31;;;21.68;61.90
65553;BME280;52465;51.560;14.368;2022-09-09T06:07:43;99924.63;;;21.68;61.70
65553;BME280;52465;51.560;14.368;2022-09-09T06:10:10;99926.50;;;21.67;61.84
65553;BME280;52465;51.560;14.368;2022-09-09T06:12:35;99927.31;;;21.68;61.99
65553;BME280;52465;51.560;14.368;2022-09-09T06:15:01;99926.50;;;21.67;62.11
65553;BME280;52465;51.560;14.368;2022-09-09T06:17:26;99928.34;;;21.67;61.63
65553;BME280;52465;51.560;14.368;2022-09-09T06:19:52;99929.16;;;21.67;62.08
65553;BME280;52465;51.560;14.368;2022-09-09T06:22:18;99937.16;;;21.67;61.76
65553;BME280;52465;51.560;14.368;2022-09-09T06:24:43;99941.44;;;21.68;61.85
65553;BME280;52465;51.560;14.368;2022-09-09T06:27:10;99930.78;;;21.68;61.85
65553;BME280;52465;51.560;14.368;2022-09-09T06:29:35;99929.97;;;21.68;61.78
65553;BME280;52465;51.560;14.368;2022-09-09T06:32:02;99927.50;;;21.66;61.78
65553;BME280;52465;51.560;14.368;2022-09-09T06:34:30;99934.50;;;21.67;61.96
65553;BME280;52465;51.560;14.368;2022-09-09T06:36:55;99939.81;;;21.67;62.16
65553;BME280;52465;51.560;14.368;2022-09-09T06:39:22;99937.38;;;21.65;62.00
65553;BME280;52465;51.560;14.368;2022-09-09T06:41:47;99934.69;;;21.65;62.02
65553;BME280;52465;51.560;14.368;2022-09-09T06:44:13;99942.69;;;21.65;62.10
65553;BME280;52465;51.560;14.368;2022-09-09T06:46:40;99945.34;;;21.65;61.81
65553;BME280;52465;51.560;14.368;2022-09-09T06:49:05;99937.38;;;21.65;62.08
65553;BME280;52465;51.560;14.368;2022-09-09T06:51:34;99946.16;;;21.66;62.08
65553;BME280;52465;51.560;14.368;2022-09-09T06:54:01;99941.88;;;21.65;61.99
65553;BME280;52465;51.560;14.368;2022-09-09T06:56:33;99941.69;;;21.67;62.20
65553;BME280;52465;51.560;14.368;2022-09-09T06:59:00;99935.50;;;21.66;62.15
65553;BME280;52465;51.560;14.368;2022-09-09T07:01:34;99936.56;;;21.65;62.16
65553;BME280;52465;51.560;14.368;2022-09-09T07:04:00;99943.50;;;21.66;62.24
65553;BME280;52465;51.560;14.368;2022-09-09T07:06:30;99934.69;;;21.65;61.93
65553;BME280;52465;51.560;14.368;2022-09-09T07:08:58;99938.19;;;21.66;62.28
65553;BME280;52465;51.560;14.368;2022-09-09T07:11:26;99936.56;;;21.65;62.03
65553;BME280;52465;51.560;14.368;2022-09-09T07:13:52;99927.91;;;21.58;62.21
65553;BME280;52465;51.560;14.368;2022-09-09T07:16:19;99941.88;;;21.65;62.23
65553;BME280;52465;51.560;14.368;2022-09-09T07:18:46;99944.56;;;21.65;62.21
65553;BME280;52465;51.560;14.368;2022-09-09T07:21:13;99949.88;;;21.65;62.10
65553;BME280;52465;51.560;14.368;2022-09-09T07:23:40;99946.16;;;21.66;62.12
65553;BME280;52465;51.560;14.368;2022-09-09T07:26:10;99941.88;;;21.65;62.00
65553;BME280;52465;51.560;14.368;2022-09-09T07:28:36;99945.34;;;21.65;62.15
65553;BME280;52465;51.560;14.368;2022-09-09T07:31:02;99939.22;;;21.65;61.90
65553;BME280;52465;51.560;14.368;2022-09-09T07:33:28;99947.22;;;21.65;61.90
65553;BME280;52465;51.560;14.368;2022-09-09T07:36:05;99949.88;;;21.65;62.02
65553;BME280;52465;51.560;14.368;2022-09-09T07:38:33;99948.03;;;21.65;61.95
65553;BME280;52465;51.560;14.368;2022-09-09T07:41:06;99941.88;;;21.65;62.03
65553;BME280;52465;51.560;14.368;2022-09-09T07:43:33;99951.50;;;21.66;61.75
65553;BME280;52465;51.560;14.368;2022-09-09T07:45:59;99948.84;;;21.66;62.27
65553;BME280;52465;51.560;14.368;2022-09-09T07:48:26;99947.81;;;21.67;62.48
65553;BME280;52465;51.560;14.368;2022-09-09T07:50:51;99950.22;;;21.69;62.18
65553;BME280;52465;51.560;14.368;2022-09-09T07:53:18;99946.75;;;21.68;62.08
65553;BME280;52465;51.560;14.368;2022-09-09T07:55:44;99944.91;;;21.69;62.34
65553;BME280;52465;51.560;14.368;2022-09-09T07:58:13;99953.69;;;21.69;61.84
65553;BME280;52465;51.560;14.368;2022-09-09T08:00:38;99956.38;;;21.69;61.91
65553;BME280;52465;51.560;14.368;2022-09-09T08:03:08;99954.50;;;21.70;61.99
65553;BME280;52465;51.560;14.368;2022-09-09T08:05:36;99957.72;;;21.72;62.11
65553;BME280;52465;51.560;14.368;2022-09-09T08:08:01;99955.91;;;21.72;62.16
65553;BME280;52465;51.560;14.368;2022-09-09T08:10:28;99961.94;;;21.68;62.00
65553;BME280;52465;51.560;14.368;2022-09-09T08:12:54;99968.97;;;21.74;61.78
65553;BME280;52465;51.560;14.368;2022-09-09T08:15:20;99972.47;;;21.74;62.08
65553;BME280;52465;51.560;14.368;2022-09-09T08:17:45;99972.47;;;21.74;62.22
65553;BME280;52465;51.560;14.368;2022-09-09T08:20:10;99958.56;;;21.72;61.87
65553;BME280;52465;51.560;14.368;2022-09-09T08:22:36;99962.59;;;21.75;62.04
65553;BME280;52465;51.560;14.368;2022-09-09T08:25:02;99970.34;;;21.76;61.75
65553;BME280;52465;51.560;14.368;2022-09-09T08:27:31;99964.22;;;21.76;62.00
65553;BME280;52465;51.560;14.368;2022-09-09T08:29:57;99970.13;;;21.78;61.37
65553;BME280;52465;51.560;14.368;2022-09-09T08:32:22;99967.47;;;21.78;61.55
65553;BME280;52465;51.560;14.368;2022-09-09T08:34:47;99962.94;;;21.78;62.04
65553;BME280;52465;51.560;14.368;2022-09-09T08:37:14;99967.78;;;21.81;61.54
65553;BME280;52465;51.560;14.368;2022-09-09T08:39:40;99963.06;;;21.83;61.67
65553;BME280;52465;51.560;14.368;2022-09-09T08:45:03;99968.22;;;21.90;61.29
65553;BME280;52465;51.560;14.368;2022-09-09T08:47:45;99969.84;;;21.91;61.18
65553;BME280;52465;51.560;14.368;2022-09-09T08:53:05;99967.75;;;21.93;61.27
65553;BME280;52465;51.560;14.368;2022-09-09T08:55:44;99978.41;;;21.93;61.29
65553;BME280;52465;51.560;14.368;2022-09-09T08:58:14;99976.78;;;21.92;61.14
65553;BME280;52465;51.560;14.368;2022-09-09T09:00:44;99976.53;;;21.93;61.26
65553;BME280;52465;51.560;14.368;2022-09-09T09:03:32;99971.00;;;21.95;61.22
65553;BME280;52465;51.560;14.368;2022-09-09T09:11:24;99967.53;;;21.95;60.98
65553;BME280;52465;51.560;14.368;2022-09-09T09:14:00;99970.19;;;21.95;61.32
65553;BME280;52465;51.560;14.368;2022-09-09T09:16:34;99964.84;;;21.95;61.16
65553;BME280;52465;51.560;14.368;2022-09-09T09:19:01;99963.81;;;21.96;60.93
65553;BME280;52465;51.560;14.368;2022-09-09T09:21:51;99972.59;;;21.96;61.32
65553;BME280;52465;51.560;14.368;2022-09-09T09:24:42;99968.88;;;21.97;61.34
65553;BME280;52465;51.560;14.368;2022-09-09T09:27:31;99965.97;;;21.99;61.08
65553;BME280;52465;51.560;14.368;2022-09-09T09:30:00;99969.22;;;22.01;61.28
65553;BME280;52465;51.560;14.368;2022-09-09T09:32:29;99969.22;;;22.01;60.96
65553;BME280;52465;51.560;14.368;2022-09-09T09:34:56;99960.75;;;22.04;61.18
65553;BME280;52465;51.560;14.368;2022-09-09T09:37:28;99967.69;;;22.05;61.00
65553;BME280;52465;51.560;14.368;2022-09-09T09:39:54;99970.13;;;22.06;60.93
65553;BME280;52465;51.560;14.368;2022-09-09T09:42:20;99966.88;;;22.04;61.12
65553;BME280;52465;51.560;14.368;2022-09-09T09:44:45;99962.34;;;22.05;60.92
65553;BME280;52465;51.560;14.368;2022-09-09T09:47:13;99964.00;;;22.06;61.29
65553;BME280;52465;51.560;14.368;2022-09-09T09:49:50;99959.69;;;22.05;61.08
65553;BME280;52465;51.560;14.368;2022-09-09T09:52:21;99961.09;;;22.07;61.32
65553;BME280;52465;51.560;14.368;2022-09-09T09:54:47;99965.59;;;22.07;60.96
65553;BME280;52465;51.560;14.368;2022-09-09T09:57:14;99964.56;;;22.08;61.15
65553;BME280;52465;51.560;14.368;2022-09-09T09:59:41;99960.03;;;22.08;61.15
65553;BME280;52465;51.560;14.368;2022-09-09T10:04:40;99957.16;;;22.10;60.81
65553;BME280;52465;51.560;14.368;2022-09-09T10:07:19;99955.28;;;22.10;60.99
65553;BME280;52465;51.560;14.368;2022-09-09T10:09:54;99960.41;;;22.12;61.34
65553;BME280;52465;51.560;14.368;2022-09-09T10:15:41;99954.81;;;22.13;61.25
65553;BME280;52465;51.560;14.368;2022-09-09T10:18:22;99959.91;;;22.15;61.00
65553;BME280;52465;51.560;14.368;2022-09-09T10:21:13;99960.72;;;22.15;61.15
65553;BME280;52465;51.560;14.368;2022-09-09T10:26:54;99961.53;;;22.16;61.40
65553;BME280;52465;51.560;14.368;2022-09-09T10:38:24;99979.63;;;22.14;61.45
65553;BME280;52465;51.560;14.368;2022-09-09T10:46:04;99995.63;;;22.14;61.21
65553;BME280;52465;51.560;14.368;2022-09-09T10:51:25;100008.41;;;22.12;61.07
65553;BME280;52465;51.560;14.368;2022-09-09T10:54:12;100010.81;;;22.13;61.45
65553;BME280;52465;51.560;14.368;2022-09-09T10:56:43;100018.81;;;22.13;61.32
65553;BME280;52465;51.560;14.368;2022-09-09T10:59:33;100020.66;;;22.13;61.19
65553;BME280;52465;51.560;14.368;2022-09-09T11:02:07;100019.63;;;22.14;61.26
65553;BME280;52465;51.560;14.368;2022-09-09T11:04:49;100013.72;;;22.12;61.63
65553;BME280;52465;51.560;14.368;2022-09-09T11:07:25;100021.72;;;22.12;61.46
65553;BME280;52465;51.560;14.368;2022-09-09T11:09:58;100017.19;;;22.12;61.11
65553;BME280;52465;51.560;14.368;2022-09-09T11:12:27;100018.25;;;22.11;61.13
65553;BME280;52465;51.560;14.368;2022-09-09T11:14:59;100019.06;;;22.12;61.54
65553;BME280;52465;51.560;14.368;2022-09-09T11:17:44;100016.41;;;22.12;61.21
65553;BME280;52465;51.560;14.368;2022-09-09T11:20:13;100017.19;;;22.12;61.63
65553;BME280;52465;51.560;14.368;2022-09-09T11:22:45;100013.72;;;22.12;61.23
65553;BME280;52465;51.560;14.368;2022-09-09T11:25:22;100010.25;;;22.11;61.23
65553;BME280;52465;51.560;14.368;2022-09-09T11:31:08;99995.28;;;22.10;61.20
65553;BME280;52465;51.560;14.368;2022-09-09T11:34:04;99999.34;;;22.13;61.54
65553;BME280;52465;51.560;14.368;2022-09-09T11:42:06;99989.00;;;22.16;61.29
65553;BME280;52465;51.560;14.368;2022-09-09T11:44:32;99982.63;;;22.17;61.14
65553;BME280;52465;51.560;14.368;2022-09-09T11:46:57;99984.25;;;22.18;61.03
65553;BME280;52465;51.560;14.368;2022-09-09T11:49:41;99980.28;;;22.21;61.54
65553;BME280;52465;51.560;14.368;2022-09-09T11:52:36;99979.22;;;22.22;61.06
65553;BME280;52465;51.560;14.368;2022-09-09T11:55:11;99968.34;;;22.24;61.22
65553;BME280;52465;51.560;14.368;2022-09-09T11:57:38;99970.75;;;22.25;61.30
65553;BME280;52465;51.560;14.368;2022-09-09T12:00:04;99966.22;;;22.26;61.47
65553;BME280;52465;51.560;14.368;2022-09-09T12:02:30;99969.47;;;22.28;61.20
65553;BME280;52465;51.560;14.368;2022-09-09T12:05:08;99957.75;;;22.29;61.26
65553;BME280;52465;51.560;14.368;2022-09-09T12:07:40;99962.03;;;22.30;61.02
65553;BME280;52465;51.560;14.368;2022-09-09T12:12:35;99958.31;;;22.31;61.41
65553;BME280;52465;51.560;14.368;2022-09-09T12:17:41;99955.41;;;22.32;61.13
65553;BME280;52465;51.560;14.368;2022-09-09T12:20:23;99956.47;;;22.31;60.98
65553;BME280;52465;51.560;14.368;2022-09-09T12:23:19;99959.69;;;22.33;61.25
65553;BME280;52465;51.560;14.368;2022-09-09T12:26:16;99961.31;;;22.34;61.38
65553;BME280;52465;51.560;14.368;2022-09-09T12:31:36;99957.84;;;22.34;61.11
65553;BME280;52465;51.560;14.368;2022-09-09T12:34:17;99952.53;;;22.34;60.98
65553;BME280;52465;51.560;14.368;2022-09-09T12:36:46;99948.28;;;22.38;61.20
65553;BME280;52465;51.560;14.368;2022-09-09T12:39:19;99946.22;;;22.40;61.34
65553;BME280;52465;51.560;14.368;2022-09-09T12:41:55;99944.34;;;22.40;60.90
65553;BME280;52465;51.560;14.368;2022-09-09T12:44:23;99941.44;;;22.42;61.34
65553;BME280;52465;51.560;14.368;2022-09-09T12:46:49;99951.06;;;22.43;61.02
65553;BME280;52465;51.560;14.368;2022-09-09T12:49:34;99952.19;;;22.47;60.70
65553;BME280;52465;51.560;14.368;2022-09-09T12:52:03;99954.44;;;22.55;60.64
65553;BME280;52465;51.560;14.368;2022-09-09T12:54:35;99949.03;;;22.67;60.46
65553;BME280;52465;51.560;14.368;2022-09-09T12:57:01;99954.28;;;22.79;60.09
65553;BME280;52465;51.560;14.368;2022-09-09T12:59:36;99949.91;;;22.89;60.00
65553;BME280;52465;51.560;14.368;2022-09-09T13:02:01;99949.25;;;22.99;60.03
65553;BME280;52465;51.560;14.368;2022-09-09T13:04:27;99941.66;;;23.08;59.45
65553;BME280;52465;51.560;14.368;2022-09-09T13:06:52;99934.75;;;23.12;59.33
65553;BME280;52465;51.560;14.368;2022-09-09T13:09:19;99946.94;;;23.25;59.28
65553;BME280;52465;51.560;14.368;2022-09-09T13:11:49;99933.97;;;23.33;59.15
65553;BME280;52465;51.560;14.368;2022-09-09T13:14:18;99932.75;;;23.41;59.14
65553;BME280;52465;51.560;14.368;2022-09-09T13:16:57;99924.53;;;23.47;58.93
65553;BME280;52465;51.560;14.368;2022-09-09T13:19:35;99913.66;;;23.54;59.12
65553;BME280;52465;51.560;14.368;2022-09-09T13:22:23;99913.44;;;23.61;59.20
65553;BME280;52465;51.560;14.368;2022-09-09T13:25:06;99911.66;;;23.66;59.16
65553;BME280;52465;51.560;14.368;2022-09-09T13:27:40;99909.84;;;23.72;58.83
65553;BME280;52465;51.560;14.368;2022-09-09T13:30:29;99901.09;;;23.77;58.76
65553;BME280;52465;51.560;14.368;2022-09-09T13:35:55;99906.78;;;23.85;59.21
65553;BME280;52465;51.560;14.368;2022-09-09T13:38:21;99899.31;;;23.87;58.67
65553;BME280;52465;51.560;14.368;2022-09-09T13:41:04;99906.00;;;23.90;59.06
65553;BME280;52465;51.560;14.368;2022-09-09T13:43:34;99904.72;;;23.92;58.96
65553;BME280;52465;51.560;14.368;2022-09-09T13:46:02;99898.84;;;23.95;58.56
65553;BME280;52465;51.560;14.368;2022-09-09T13:48:27;99893.50;;;23.95;58.78
65553;BME280;52465;51.560;14.368;2022-09-09T13:50:55;99891.63;;;23.96;58.74
65553;BME280;52465;51.560;14.368;2022-09-09T13:53:20;99894.88;;;23.98;58.44
65553;BME280;52465;51.560;14.368;2022-09-09T13:55:46;99895.41;;;24.00;58.74
65553;BME280;52465;51.560;14.368;2022-09-09T13:58:15;99892.75;;;24.00;58.41
65553;BME280;52465;51.560;14.368;2022-09-09T14:00:41;99893.84;;;24.04;58.23
65553;BME280;52465;51.560;14.368;2022-09-09T14:03:09;99890.38;;;24.04;58.55
65553;BME280;52465;51.560;14.368;2022-09-09T14:05:35;99887.44;;;24.05;58.36
65553;BME280;52465;51.560;14.368;2022-09-09T14:08:04;99892.78;;;24.05;58.24
65553;BME280;52465;51.560;14.368;2022-09-09T14:10:29;99896.53;;;24.04;58.24
65553;BME280;52465;51.560;14.368;2022-09-09T14:12:55;99898.69;;;24.07;58.30
65553;BME280;52465;51.560;14.368;2022-09-09T14:15:21;99896.84;;;24.08;58.23
65553;BME280;52465;51.560;14.368;2022-09-09T14:17:46;99893.34;;;24.07;58.29
65553;BME280;52465;51.560;14.368;2022-09-09T14:20:13;99892.31;;;24.08;58.13
65553;BME280;52465;51.560;14.368;2022-09-09T14:22:40;99892.03;;;24.10;58.06
65553;BME280;52465;51.560;14.368;2022-09-09T14:25:06;99891.22;;;24.09;58.16
65553;BME280;52465;51.560;14.368;2022-09-09T14:27:31;99894.72;;;24.10;58.03